sensor_id;sensor_type;location;lat;lon;timestamp;P1;durP1;ratioP1;P2;durP2;ratioP2
8232;SDS011;4157;48.074;9.952;2023-12-20T00:01:13;4.38;;;2.53;;
8232;SDS011;4157;48.074;9.952;2023-12-20T00:03:41;4.72;;;2.90;;
8232;SDS011;4157;48.074;9.952;2023-12-20T00:06:09;4.97;;;2.50;;
8232;SDS011;4157;48.074;9.952;2023-12-20T00:08:36;5.50;;;2.80;;
8232;SDS011;4157;48.074;9.952;2023-12-20T00:11:04;3.90;;;2.60;;
8232;SDS011;4157;48.074;9.952;2023-12-20T00:13:33;4.82;;;2.88;;
8232;SDS011;4157;48.074;9.952;2023-12-20T00:16:01;4.72;;;2.63;;
8232;SDS011;4157;48.074;9.952;2023-12-20T00:18:28;4.72;;;2.60;;
8232;SDS011;4157;48.074;9.952;2023-12-20T00:20:56;4.60;;;2.90;;
8232;SDS011;4157;48.074;9.952;2023-12-20T00:23:24;4.75;;;2.60;;
8232;SDS011;4157;48.074;9.952;2023-12-20T00:25:51;4.70;;;2.97;;
8232;SDS011;4157;48.074;9.952;2023-12-20T00:28:19;4.65;;;2.75;;
8232;SDS011;4157;48.074;9.952;2023-12-20T00:30:48;6.05;;;3.70;;
8232;SDS011;4157;48.074;9.952;2023-12-20T00:33:16;5.75;;;3.53;;
8232;SDS011;4157;48.074;9.952;2023-12-20T00:35:43;5.25;;;3.22;;
8232;SDS011;4157;48.074;9.952;2023-12-20T00:38:11;5.75;;;3.78;;
8232;SDS011;4157;48.074;9.952;2023-12-20T00:40:38;5.72;;;3.53;;
8232;SDS011;4157;48.074;9.952;2023-12-20T00:43:06;6.70;;;3.90;;
8232;SDS011;4157;48.074;9.952;2023-12-20T00:45:34;6.63;;;3.92;;
8232;SDS011;4157;48.074;9.952;2023-12-20T00:48:03;6.47;;;4.10;;
8232;SDS011;4157;48.074;9.952;2023-12-20T00:50:31;5.43;;;3.55;;
8232;SDS011;4157;48.074;9.952;2023-12-20T00:52:59;5.15;;;3.28;;
8232;SDS011;4157;48.074;9.952;2023-12-20T00:55:26;6.00;;;4.00;;
8232;SDS011;4157;48.074;9.952;2023-12-20T00:57:54;6.00;;;3.63;;
8232;SDS011;4157;48.074;9.952;2023-12-20T01:00:22;5.38;;;3.58;;
8232;SDS011;4157;48.074;9.952;2023-12-20T01:02:50;5.43;;;3.40;;
8232;SDS011;4157;48.074;9.952;2023-12-20T01:05:19;5.32;;;3.50;;
8232;SDS011;4157;48.074;9.952;2023-12-20T01:07:48;5.63;;;3.88;;
8232;SDS011;4157;48.074;9.952;2023-12-20T01:10:16;5.72;;;3.42;;
8232;SDS011;4157;48.074;9.952;2023-12-20T01:12:44;4.90;;;3.33;;
8232;SDS011;4157;48.074;9.952;2023-12-20T01:15:12;5.60;;;3.35;;
8232;SDS011;4157;48.074;9.952;2023-12-20T01:17:40;4.78;;;3.05;;
8232;SDS011;4157;48.074;9.952;2023-12-20T01:20:07;5.18;;;3.25;;
8232;SDS011;4157;48.074;9.952;2023-12-20T01:22:36;5.05;;;3.38;;
8232;SDS011;4157;48.074;9.952;2023-12-20T01:25:04;5.88;;;3.60;;
8232;SDS011;4157;48.074;9.952;2023-12-20T01:27:32;4.70;;;3.05;;
8232;SDS011;4157;48.074;9.952;2023-12-20T01:30:00;4.93;;;3.28;;
8232;SDS011;4157;48.074;9.952;2023-12-20T01:32:28;5.28;;;3.78;;
8232;SDS011;4157;48.074;9.952;2023-12-20T01:34:55;5.10;;;3.50;;
8232;SDS011;4157;48.074;9.952;2023-12-20T01:37:23;4.50;;;3.00;;
8232;SDS011;4157;48.074;9.952;2023-12-20T01:39:53;4.93;;;3.17;;
8232;SDS011;4157;48.074;9.952;2023-12-20T01:42:21;4.80;;;3.20;;
8232;SDS011;4157;48.074;9.952;2023-12-20T01:44:49;6.10;;;4.25;;
8232;SDS011;4157;48.074;9.952;2023-12-20T01:47:16;5.95;;;3.78;;
8232;SDS011;4157;48.074;9.952;2023-12-20T01:49:44;5.00;;;3.25;;
8232;SDS011;4157;48.074;9.952;2023-12-20T01:52:11;4.72;;;3.03;;
8232;SDS011;4157;48.074;9.952;2023-12-20T01:54:39;5.20;;;3.10;;
8232;SDS011;4157;48.074;9.952;2023-12-20T01:57:09;5.18;;;3.20;;
8232;SDS011;4157;48.074;9.952;2023-12-20T01:59:37;4.80;;;3.00;;
8232;SDS011;4157;48.074;9.952;2023-12-20T02:02:06;4.80;;;3.08;;
8232;SDS011;4157;48.074;9.952;2023-12-20T02:04:34;4.38;;;3.03;;
8232;SDS011;4157;48.074;9.952;2023-12-20T02:07:02;4.90;;;3.00;;
8232;SDS011;4157;48.074;9.952;2023-12-20T02:09:30;4.95;;;3.30;;
8232;SDS011;4157;48.074;9.952;2023-12-20T02:11:59;6.22;;;3.53;;
8232;SDS011;4157;48.074;9.952;2023-12-20T02:14:28;4.63;;;3.08;;
8232;SDS011;4157;48.074;9.952;2023-12-20T02:16:56;4.63;;;2.97;;
8232;SDS011;4157;48.074;9.952;2023-12-20T02:19:23;4.43;;;2.90;;
8232;SDS011;4157;48.074;9.952;2023-12-20T02:22:05;6.32;;;3.75;;
8232;SDS011;4157;48.074;9.952;2023-12-20T02:24:33;6.88;;;3.42;;
8232;SDS011;4157;48.074;9.952;2023-12-20T02:27:00;4.97;;;3.47;;
8232;SDS011;4157;48.074;9.952;2023-12-20T02:29:28;5.05;;;3.40;;
8232;SDS011;4157;48.074;9.952;2023-12-20T02:31:56;5.63;;;3.90;;
8232;SDS011;4157;48.074;9.952;2023-12-20T02:34:23;4.97;;;3.45;;
8232;SDS011;4157;48.074;9.952;2023-12-20T02:36:51;5.40;;;3.53;;
8232;SDS011;4157;48.074;9.952;2023-12-20T02:39:20;5.68;;;3.72;;
8232;SDS011;4157;48.074;9.952;2023-12-20T02:41:48;5.43;;;3.85;;
8232;SDS011;4157;48.074;9.952;2023-12-20T02:44:16;5.93;;;3.92;;
8232;SDS011;4157;48.074;9.952;2023-12-20T02:46:43;5.22;;;3.45;;
8232;SDS011;4157;48.074;9.952;2023-12-20T02:49:11;5.20;;;3.80;;
8232;SDS011;4157;48.074;9.952;2023-12-20T02:51:39;7.60;;;4.40;;
8232;SDS011;4157;48.074;9.952;2023-12-20T02:54:06;6.63;;;4.40;;
8232;SDS011;4157;48.074;9.952;2023-12-20T02:56:35;5.85;;;4.30;;
8232;SDS011;4157;48.074;9.952;2023-12-20T02:59:03;5.57;;;3.92;;
8232;SDS011;4157;48.074;9.952;2023-12-20T03:01:34;6.63;;;3.92;;
8232;SDS011;4157;48.074;9.952;2023-12-20T03:04:02;6.32;;;3.90;;
8232;SDS011;4157;48.074;9.952;2023-12-20T03:06:29;6.88;;;4.13;;
8232;SDS011;4157;48.074;9.952;2023-12-20T03:08:57;5.45;;;3.67;;
8232;SDS011;4157;48.074;9.952;2023-12-20T03:11:26;5.32;;;3.50;;
8232;SDS011;4157;48.074;9.952;2023-12-20T03:13:55;5.75;;;4.00;;
8232;SDS011;4157;48.074;9.952;2023-12-20T03:16:23;5.68;;;3.92;;
8232;SDS011;4157;48.074;9.952;2023-12-20T03:18:51;5.47;;;3.85;;
8232;SDS011;4157;48.074;9.952;2023-12-20T03:21:19;5.72;;;3.92;;
8232;SDS011;4157;48.074;9.952;2023-12-20T03:23:46;5.43;;;3.50;;
8232;SDS011;4157;48.074;9.952;2023-12-20T03:26:14;7.38;;;3.80;;
8232;SDS011;4157;48.074;9.952;2023-12-20T03:28:42;5.78;;;3.70;;
8232;SDS011;4157;48.074;9.952;2023-12-20T03:31:11;5.93;;;3.85;;
8232;SDS011;4157;48.074;9.952;2023-12-20T03:33:38;6.70;;;4.20;;
8232;SDS011;4157;48.074;9.952;2023-12-20T03:36:06;7.20;;;4.72;;
8232;SDS011;4157;48.074;9.952;2023-12-20T03:38:34;5.93;;;3.88;;
8232;SDS011;4157;48.074;9.952;2023-12-20T03:41:01;6.35;;;3.83;;
8232;SDS011;4157;48.074;9.952;2023-12-20T03:43:29;6.93;;;4.70;;
8232;SDS011;4157;48.074;9.952;2023-12-20T03:45:57;5.80;;;4.10;;
8232;SDS011;4157;48.074;9.952;2023-12-20T03:48:26;7.07;;;4.55;;
8232;SDS011;4157;48.074;9.952;2023-12-20T03:50:54;6.35;;;4.50;;
8232;SDS011;4157;48.074;9.952;2023-12-20T03:53:22;8.23;;;5.15;;
8232;SDS011;4157;48.074;9.952;2023-12-20T03:55:50;6.18;;;4.70;;
8232;SDS011;4157;48.074;9.952;2023-12-20T03:58:17;6.18;;;4.60;;
8232;SDS011;4157;48.074;9.952;2023-12-20T04:00:45;8.07;;;4.35;;
8232;SDS011;4157;48.074;9.952;2023-12-20T04:03:13;7.28;;;5.15;;
8232;SDS011;4157;48.074;9.952;2023-12-20T04:05:42;7.10;;;5.20;;
8232;SDS011;4157;48.074;9.952;2023-12-20T04:08:11;8.45;;;5.85;;
8232;SDS011;4157;48.074;9.952;2023-12-20T04:10:39;7.53;;;6.00;;
8232;SDS011;4157;48.074;9.952;2023-12-20T04:13:06;9.00;;;6.30;;
8232;SDS011;4157;48.074;9.952;2023-12-20T04:15:34;8.93;;;7.35;;
8232;SDS011;4157;48.074;9.952;2023-12-20T04:18:02;11.85;;;7.80;;
8232;SDS011;4157;48.074;9.952;2023-12-20T04:20:29;10.65;;;7.28;;
8232;SDS011;4157;48.074;9.952;2023-12-20T04:22:58;11.10;;;8.20;;
8232;SDS011;4157;48.074;9.952;2023-12-20T04:25:26;10.80;;;8.32;;
8232;SDS011;4157;48.074;9.952;2023-12-20T04:27:54;11.30;;;9.23;;
8232;SDS011;4157;48.074;9.952;2023-12-20T04:30:21;10.75;;;8.68;;
8232;SDS011;4157;48.074;9.952;2023-12-20T04:32:49;9.98;;;7.85;;
8232;SDS011;4157;48.074;9.952;2023-12-20T04:35:16;10.20;;;8.57;;
8232;SDS011;4157;48.074;9.952;2023-12-20T04:37:44;11.68;;;8.68;;
8232;SDS011;4157;48.074;9.952;2023-12-20T04:40:14;11.48;;;8.68;;
8232;SDS011;4157;48.074;9.952;2023-12-20T04:42:41;12.27;;;9.95;;
8232;SDS011;4157;48.074;9.952;2023-12-20T04:45:09;12.50;;;11.10;;
8232;SDS011;4157;48.074;9.952;2023-12-20T04:47:38;12.02;;;9.02;;
8232;SDS011;4157;48.074;9.952;2023-12-20T04:50:06;10.85;;;9.05;;
8232;SDS011;4157;48.074;9.952;2023-12-20T04:52:35;12.70;;;10.15;;
8232;SDS011;4157;48.074;9.952;2023-12-20T04:55:03;12.00;;;9.70;;
8232;SDS011;4157;48.074;9.952;2023-12-20T04:57:32;12.23;;;9.85;;
8232;SDS011;4157;48.074;9.952;2023-12-20T04:59:59;10.90;;;9.18;;
8232;SDS011;4157;48.074;9.952;2023-12-20T05:02:27;10.48;;;8.38;;
8232;SDS011;4157;48.074;9.952;2023-12-20T05:04:55;12.02;;;9.82;;
8232;SDS011;4157;48.074;9.952;2023-12-20T05:07:23;12.32;;;10.43;;
8232;SDS011;4157;48.074;9.952;2023-12-20T05:09:50;11.15;;;9.25;;
8232;SDS011;4157;48.074;9.952;2023-12-20T05:12:18;11.60;;;8.93;;
8232;SDS011;4157;48.074;9.952;2023-12-20T05:14:47;10.98;;;9.02;;
8232;SDS011;4157;48.074;9.952;2023-12-20T05:17:14;10.80;;;9.13;;
8232;SDS011;4157;48.074;9.952;2023-12-20T05:19:42;11.98;;;9.85;;
8232;SDS011;4157;48.074;9.952;2023-12-20T05:22:10;11.77;;;8.82;;
8232;SDS011;4157;48.074;9.952;2023-12-20T05:24:38;11.80;;;9.43;;
8232;SDS011;4157;48.074;9.952;2023-12-20T05:27:05;10.20;;;9.02;;
8232;SDS011;4157;48.074;9.952;2023-12-20T05:29:33;13.25;;;11.02;;
8232;SDS011;4157;48.074;9.952;2023-12-20T05:32:02;12.30;;;9.27;;
8232;SDS011;4157;48.074;9.952;2023-12-20T05:34:30;13.18;;;9.35;;
8232;SDS011;4157;48.074;9.952;2023-12-20T05:36:58;10.38;;;8.15;;
8232;SDS011;4157;48.074;9.952;2023-12-20T05:39:27;10.60;;;9.18;;
8232;SDS011;4157;48.074;9.952;2023-12-20T05:41:56;10.18;;;8.55;;
8232;SDS011;4157;48.074;9.952;2023-12-20T05:44:24;10.23;;;7.65;;
8232;SDS011;4157;48.074;9.952;2023-12-20T05:46:52;9.02;;;7.28;;
8232;SDS011;4157;48.074;9.952;2023-12-20T05:49:21;10.50;;;8.60;;
8232;SDS011;4157;48.074;9.952;2023-12-20T05:51:48;11.60;;;9.18;;
8232;SDS011;4157;48.074;9.952;2023-12-20T05:54:16;10.43;;;8.73;;
8232;SDS011;4157;48.074;9.952;2023-12-20T05:56:44;10.38;;;8.73;;
8232;SDS011;4157;48.074;9.952;2023-12-20T05:59:12;9.70;;;8.70;;
8232;SDS011;4157;48.074;9.952;2023-12-20T06:01:39;9.90;;;8.48;;
8232;SDS011;4157;48.074;9.952;2023-12-20T06:04:07;9.88;;;8.05;;
8232;SDS011;4157;48.074;9.952;2023-12-20T06:06:41;11.35;;;9.13;;
8232;SDS011;4157;48.074;9.952;2023-12-20T06:09:08;9.45;;;8.13;;
8232;SDS011;4157;48.074;9.952;2023-12-20T06:11:36;9.90;;;7.43;;
8232;SDS011;4157;48.074;9.952;2023-12-20T06:14:04;9.85;;;7.80;;
8232;SDS011;4157;48.074;9.952;2023-12-20T06:16:31;11.32;;;9.10;;
8232;SDS011;4157;48.074;9.952;2023-12-20T06:18:59;12.15;;;9.48;;
8232;SDS011;4157;48.074;9.952;2023-12-20T06:21:27;9.18;;;7.65;;
8232;SDS011;4157;48.074;9.952;2023-12-20T06:23:56;11.88;;;8.98;;
8232;SDS011;4157;48.074;9.952;2023-12-20T06:26:23;12.57;;;9.95;;
8232;SDS011;4157;48.074;9.952;2023-12-20T06:28:51;7.55;;;6.20;;
8232;SDS011;4157;48.074;9.952;2023-12-20T06:31:18;15.77;;;11.93;;
8232;SDS011;4157;48.074;9.952;2023-12-20T06:33:46;9.70;;;7.65;;
8232;SDS011;4157;48.074;9.952;2023-12-20T06:36:15;9.57;;;7.40;;
8232;SDS011;4157;48.074;9.952;2023-12-20T06:38:43;9.68;;;7.07;;
8232;SDS011;4157;48.074;9.952;2023-12-20T06:41:14;9.02;;;6.97;;
8232;SDS011;4157;48.074;9.952;2023-12-20T06:43:43;8.52;;;6.85;;
8232;SDS011;4157;48.074;9.952;2023-12-20T06:46:10;12.13;;;9.68;;
8232;SDS011;4157;48.074;9.952;2023-12-20T06:48:38;13.73;;;11.20;;
8232;SDS011;4157;48.074;9.952;2023-12-20T06:51:06;8.40;;;5.90;;
8232;SDS011;4157;48.074;9.952;2023-12-20T06:53:38;8.02;;;6.35;;
8232;SDS011;4157;48.074;9.952;2023-12-20T06:56:06;7.60;;;5.60;;
8232;SDS011;4157;48.074;9.952;2023-12-20T06:58:35;8.15;;;5.95;;
8232;SDS011;4157;48.074;9.952;2023-12-20T07:01:03;8.35;;;6.55;;
8232;SDS011;4157;48.074;9.952;2023-12-20T07:03:31;6.82;;;5.53;;
8232;SDS011;4157;48.074;9.952;2023-12-20T07:05:59;7.57;;;6.50;;
8232;SDS011;4157;48.074;9.952;2023-12-20T07:08:26;8.75;;;6.80;;
8232;SDS011;4157;48.074;9.952;2023-12-20T07:10:54;10.20;;;8.05;;
8232;SDS011;4157;48.074;9.952;2023-12-20T07:13:22;9.65;;;7.47;;
8232;SDS011;4157;48.074;9.952;2023-12-20T07:15:51;8.98;;;7.03;;
8232;SDS011;4157;48.074;9.952;2023-12-20T07:18:18;9.48;;;7.70;;
8232;SDS011;4157;48.074;9.952;2023-12-20T07:20:46;9.10;;;6.35;;
8232;SDS011;4157;48.074;9.952;2023-12-20T07:23:14;8.63;;;7.15;;
8232;SDS011;4157;48.074;9.952;2023-12-20T07:25:41;8.65;;;7.20;;
8232;SDS011;4157;48.074;9.952;2023-12-20T07:28:09;9.15;;;6.93;;
8232;SDS011;4157;48.074;9.952;2023-12-20T07:30:37;7.88;;;6.22;;
8232;SDS011;4157;48.074;9.952;2023-12-20T07:33:06;8.93;;;7.00;;
8232;SDS011;4157;48.074;9.952;2023-12-20T07:35:35;10.15;;;7.88;;
8232;SDS011;4157;48.074;9.952;2023-12-20T07:38:03;8.70;;;6.60;;
8232;SDS011;4157;48.074;9.952;2023-12-20T07:40:30;14.63;;;10.98;;
8232;SDS011;4157;48.074;9.952;2023-12-20T07:42:58;9.73;;;7.88;;
8232;SDS011;4157;48.074;9.952;2023-12-20T07:45:26;9.85;;;7.78;;
8232;SDS011;4157;48.074;9.952;2023-12-20T07:47:53;9.38;;;7.82;;
8232;SDS011;4157;48.074;9.952;2023-12-20T07:50:22;12.70;;;10.05;;
8232;SDS011;4157;48.074;9.952;2023-12-20T07:52:50;10.65;;;8.90;;
8232;SDS011;4157;48.074;9.952;2023-12-20T07:55:18;9.20;;;7.53;;
8232;SDS011;4157;48.074;9.952;2023-12-20T07:57:46;10.68;;;9.45;;
8232;SDS011;4157;48.074;9.952;2023-12-20T08:00:14;9.27;;;8.23;;
8232;SDS011;4157;48.074;9.952;2023-12-20T08:02:42;9.80;;;8.00;;
8232;SDS011;4157;48.074;9.952;2023-12-20T08:05:10;9.77;;;8.27;;
8232;SDS011;4157;48.074;9.952;2023-12-20T08:07:39;9.68;;;8.50;;
8232;SDS011;4157;48.074;9.952;2023-12-20T08:10:07;10.05;;;8.57;;
8232;SDS011;4157;48.074;9.952;2023-12-20T08:12:34;8.15;;;6.57;;
8232;SDS011;4157;48.074;9.952;2023-12-20T08:15:02;9.85;;;7.75;;
8232;SDS011;4157;48.074;9.952;2023-12-20T08:17:30;9.85;;;7.57;;
8232;SDS011;4157;48.074;9.952;2023-12-20T08:19:58;8.82;;;6.90;;
8232;SDS011;4157;48.074;9.952;2023-12-20T08:22:25;9.43;;;7.82;;
8232;SDS011;4157;48.074;9.952;2023-12-20T08:24:55;10.20;;;8.82;;
8232;SDS011;4157;48.074;9.952;2023-12-20T08:27:22;8.73;;;7.57;;
8232;SDS011;4157;48.074;9.952;2023-12-20T08:29:51;9.00;;;7.35;;
8232;SDS011;4157;48.074;9.952;2023-12-20T08:32:19;8.40;;;7.15;;
8232;SDS011;4157;48.074;9.952;2023-12-20T08:34:46;9.48;;;7.85;;
8232;SDS011;4157;48.074;9.952;2023-12-20T08:37:15;9.43;;;7.68;;
8232;SDS011;4157;48.074;9.952;2023-12-20T08:39:43;9.63;;;7.80;;
8232;SDS011;4157;48.074;9.952;2023-12-20T08:42:12;9.65;;;7.25;;
8232;SDS011;4157;48.074;9.952;2023-12-20T08:44:39;12.82;;;8.98;;
8232;SDS011;4157;48.074;9.952;2023-12-20T08:47:07;9.38;;;7.57;;
8232;SDS011;4157;48.074;9.952;2023-12-20T08:49:38;8.65;;;7.43;;
8232;SDS011;4157;48.074;9.952;2023-12-20T08:52:06;8.73;;;7.20;;
8232;SDS011;4157;48.074;9.952;2023-12-20T08:54:34;7.70;;;6.57;;
8232;SDS011;4157;48.074;9.952;2023-12-20T08:57:01;7.65;;;6.50;;
8232;SDS011;4157;48.074;9.952;2023-12-20T08:59:33;7.72;;;6.20;;
8232;SDS011;4157;48.074;9.952;2023-12-20T09:02:00;8.32;;;6.40;;
8232;SDS011;4157;48.074;9.952;2023-12-20T09:04:28;8.90;;;7.05;;
8232;SDS011;4157;48.074;9.952;2023-12-20T09:06:56;7.45;;;6.43;;
8232;SDS011;4157;48.074;9.952;2023-12-20T09:09:23;8.07;;;6.70;;
8232;SDS011;4157;48.074;9.952;2023-12-20T09:11:51;9.35;;;6.85;;
8232;SDS011;4157;48.074;9.952;2023-12-20T09:14:19;8.00;;;7.10;;
8232;SDS011;4157;48.074;9.952;2023-12-20T09:16:48;7.18;;;5.80;;
8232;SDS011;4157;48.074;9.952;2023-12-20T09:19:16;8.63;;;6.28;;
8232;SDS011;4157;48.074;9.952;2023-12-20T09:21:44;7.72;;;5.88;;
8232;SDS011;4157;48.074;9.952;2023-12-20T09:24:12;7.45;;;6.00;;
8232;SDS011;4157;48.074;9.952;2023-12-20T09:26:39;7.82;;;6.20;;
8232;SDS011;4157;48.074;9.952;2023-12-20T09:29:08;7.50;;;6.40;;
8232;SDS011;4157;48.074;9.952;2023-12-20T09:31:40;6.57;;;5.22;;
8232;SDS011;4157;48.074;9.952;2023-12-20T09:34:10;6.97;;;5.57;;
8232;SDS011;4157;48.074;9.952;2023-12-20T09:36:38;8.55;;;6.25;;
8232;SDS011;4157;48.074;9.952;2023-12-20T09:39:12;6.70;;;5.30;;
8232;SDS011;4157;48.074;9.952;2023-12-20T09:41:41;6.82;;;5.00;;
8232;SDS011;4157;48.074;9.952;2023-12-20T09:44:13;8.80;;;6.03;;
8232;SDS011;4157;48.074;9.952;2023-12-20T09:46:44;7.05;;;5.40;;
8232;SDS011;4157;48.074;9.952;2023-12-20T09:49:13;7.38;;;5.55;;
8232;SDS011;4157;48.074;9.952;2023-12-20T09:51:41;7.07;;;6.15;;
8232;SDS011;4157;48.074;9.952;2023-12-20T09:54:09;7.13;;;5.10;;
8232;SDS011;4157;48.074;9.952;2023-12-20T09:56:37;7.35;;;5.38;;
8232;SDS011;4157;48.074;9.952;2023-12-20T09:59:04;7.03;;;5.50;;
8232;SDS011;4157;48.074;9.952;2023-12-20T10:01:32;8.45;;;6.00;;
8232;SDS011;4157;48.074;9.952;2023-12-20T10:04:01;6.00;;;4.50;;
8232;SDS011;4157;48.074;9.952;2023-12-20T10:06:35;6.60;;;5.13;;
8232;SDS011;4157;48.074;9.952;2023-12-20T10:09:03;6.90;;;4.80;;
8232;SDS011;4157;48.074;9.952;2023-12-20T10:11:31;5.90;;;4.50;;
8232;SDS011;4157;48.074;9.952;2023-12-20T10:13:59;6.05;;;4.63;;
8232;SDS011;4157;48.074;9.952;2023-12-20T10:16:27;7.20;;;5.00;;
8232;SDS011;4157;48.074;9.952;2023-12-20T10:18:55;7.43;;;5.03;;
8232;SDS011;4157;48.074;9.952;2023-12-20T10:21:23;6.47;;;4.60;;
8232;SDS011;4157;48.074;9.952;2023-12-20T10:23:53;6.47;;;4.70;;
8232;SDS011;4157;48.074;9.952;2023-12-20T10:26:21;5.93;;;4.22;;
8232;SDS011;4157;48.074;9.952;2023-12-20T10:28:49;5.40;;;4.15;;
8232;SDS011;4157;48.074;9.952;2023-12-20T10:31:25;5.43;;;3.63;;
8232;SDS011;4157;48.074;9.952;2023-12-20T10:33:53;5.57;;;3.67;;
8232;SDS011;4157;48.074;9.952;2023-12-20T10:36:21;6.40;;;3.85;;
8232;SDS011;4157;48.074;9.952;2023-12-20T10:38:53;5.32;;;3.70;;
8232;SDS011;4157;48.074;9.952;2023-12-20T10:41:24;7.43;;;3.75;;
8232;SDS011;4157;48.074;9.952;2023-12-20T10:43:53;6.30;;;3.75;;
8232;SDS011;4157;48.074;9.952;2023-12-20T10:46:22;7.45;;;4.32;;
8232;SDS011;4157;48.074;9.952;2023-12-20T10:48:52;6.60;;;4.20;;
8232;SDS011;4157;48.074;9.952;2023-12-20T10:51:21;4.90;;;2.95;;
8232;SDS011;4157;48.074;9.952;2023-12-20T10:53:49;4.80;;;2.97;;
8232;SDS011;4157;48.074;9.952;2023-12-20T10:56:19;4.78;;;3.10;;
8232;SDS011;4157;48.074;9.952;2023-12-20T10:58:49;4.57;;;3.22;;
8232;SDS011;4157;48.074;9.952;2023-12-20T11:01:18;4.47;;;2.80;;
8232;SDS011;4157;48.074;9.952;2023-12-20T11:03:48;5.53;;;3.63;;
8232;SDS011;4157;48.074;9.952;2023-12-20T11:06:22;5.85;;;3.63;;
8232;SDS011;4157;48.074;9.952;2023-12-20T11:08:55;6.10;;;4.38;;
8232;SDS011;4157;48.074;9.952;2023-12-20T11:11:37;5.55;;;3.80;;
8232;SDS011;4157;48.074;9.952;2023-12-20T11:14:06;5.10;;;2.92;;
8232;SDS011;4157;48.074;9.952;2023-12-20T11:16:36;4.75;;;3.50;;
8232;SDS011;4157;48.074;9.952;2023-12-20T11:19:04;3.72;;;2.08;;
8232;SDS011;4157;48.074;9.952;2023-12-20T11:21:32;5.60;;;3.65;;
8232;SDS011;4157;48.074;9.952;2023-12-20T11:24:00;2.72;;;1.50;;
8232;SDS011;4157;48.074;9.952;2023-12-20T11:26:29;3.03;;;1.50;;
8232;SDS011;4157;48.074;9.952;2023-12-20T11:31:41;4.40;;;1.98;;
8232;SDS011;4157;48.074;9.952;2023-12-20T11:34:12;3.55;;;2.03;;
8232;SDS011;4157;48.074;9.952;2023-12-20T11:36:40;2.90;;;1.80;;
8232;SDS011;4157;48.074;9.952;2023-12-20T11:39:08;3.45;;;1.65;;
8232;SDS011;4157;48.074;9.952;2023-12-20T11:41:36;3.38;;;1.75;;
8232;SDS011;4157;48.074;9.952;2023-12-20T11:44:04;2.50;;;1.20;;
8232;SDS011;4157;48.074;9.952;2023-12-20T11:46:31;4.28;;;1.73;;
8232;SDS011;4157;48.074;9.952;2023-12-20T11:49:01;4.30;;;1.95;;
8232;SDS011;4157;48.074;9.952;2023-12-20T11:51:29;5.70;;;2.08;;
8232;SDS011;4157;48.074;9.952;2023-12-20T11:53:57;2.88;;;1.60;;
8232;SDS011;4157;48.074;9.952;2023-12-20T11:56:24;2.28;;;1.30;;
8232;SDS011;4157;48.074;9.952;2023-12-20T11:58:52;0.60;;;0.60;;
8232;SDS011;4157;48.074;9.952;2023-12-20T12:01:20;0.70;;;0.50;;
8232;SDS011;4157;48.074;9.952;2023-12-20T12:03:47;0.77;;;0.40;;
8232;SDS011;4157;48.074;9.952;2023-12-20T12:06:16;0.43;;;0.43;;
8232;SDS011;4157;48.074;9.952;2023-12-20T12:08:44;0.75;;;0.60;;
8232;SDS011;4157;48.074;9.952;2023-12-20T12:11:12;0.82;;;0.65;;
8232;SDS011;4157;48.074;9.952;2023-12-20T12:13:39;0.50;;;0.32;;
8232;SDS011;4157;48.074;9.952;2023-12-20T12:16:07;0.70;;;0.30;;
8232;SDS011;4157;48.074;9.952;2023-12-20T12:18:35;1.00;;;0.60;;
8232;SDS011;4157;48.074;9.952;2023-12-20T12:21:03;0.68;;;0.40;;
8232;SDS011;4157;48.074;9.952;2023-12-20T12:23:32;0.70;;;0.55;;
8232;SDS011;4157;48.074;9.952;2023-12-20T12:25:59;1.02;;;0.60;;
8232;SDS011;4157;48.074;9.952;2023-12-20T12:28:31;1.08;;;0.70;;
8232;SDS011;4157;48.074;9.952;2023-12-20T12:30:58;1.20;;;0.68;;
8232;SDS011;4157;48.074;9.952;2023-12-20T12:33:26;0.77;;;0.57;;
8232;SDS011;4157;48.074;9.952;2023-12-20T12:35:54;1.17;;;0.65;;
8232;SDS011;4157;48.074;9.952;2023-12-20T12:38:22;1.77;;;0.90;;
8232;SDS011;4157;48.074;9.952;2023-12-20T12:40:51;0.77;;;0.73;;
8232;SDS011;4157;48.074;9.952;2023-12-20T12:43:19;1.20;;;0.80;;
8232;SDS011;4157;48.074;9.952;2023-12-20T12:45:48;2.03;;;1.00;;
8232;SDS011;4157;48.074;9.952;2023-12-20T12:48:16;3.22;;;1.52;;
8232;SDS011;4157;48.074;9.952;2023-12-20T12:50:45;2.22;;;1.10;;
8232;SDS011;4157;48.074;9.952;2023-12-20T12:53:13;2.08;;;0.90;;
8232;SDS011;4157;48.074;9.952;2023-12-20T12:55:40;1.33;;;0.88;;
8232;SDS011;4157;48.074;9.952;2023-12-20T12:58:09;1.00;;;0.80;;
8232;SDS011;4157;48.074;9.952;2023-12-20T13:00:37;1.13;;;0.80;;
8232;SDS011;4157;48.074;9.952;2023-12-20T13:03:05;1.77;;;0.80;;
8232;SDS011;4157;48.074;9.952;2023-12-20T13:05:33;1.17;;;0.77;;
8232;SDS011;4157;48.074;9.952;2023-12-20T13:08:00;1.60;;;0.80;;
8232;SDS011;4157;48.074;9.952;2023-12-20T13:10:28;1.95;;;0.95;;
8232;SDS011;4157;48.074;9.952;2023-12-20T13:12:56;1.65;;;0.90;;
8232;SDS011;4157;48.074;9.952;2023-12-20T13:15:25;2.85;;;1.10;;
8232;SDS011;4157;48.074;9.952;2023-12-20T13:17:53;2.10;;;0.82;;
8232;SDS011;4157;48.074;9.952;2023-12-20T13:20:20;1.88;;;1.02;;
8232;SDS011;4157;48.074;9.952;2023-12-20T13:22:48;1.88;;;0.80;;
8232;SDS011;4157;48.074;9.952;2023-12-20T13:25:16;2.95;;;1.10;;
8232;SDS011;4157;48.074;9.952;2023-12-20T13:27:44;3.35;;;1.20;;
8232;SDS011;4157;48.074;9.952;2023-12-20T13:30:12;2.55;;;1.00;;
8232;SDS011;4157;48.074;9.952;2023-12-20T13:32:41;2.55;;;0.88;;
8232;SDS011;4157;48.074;9.952;2023-12-20T13:35:09;2.03;;;1.15;;
8232;SDS011;4157;48.074;9.952;2023-12-20T13:37:38;1.90;;;1.00;;
8232;SDS011;4157;48.074;9.952;2023-12-20T13:40:06;2.22;;;1.10;;
8232;SDS011;4157;48.074;9.952;2023-12-20T13:42:34;2.00;;;1.00;;
8232;SDS011;4157;48.074;9.952;2023-12-20T13:45:02;2.08;;;1.15;;
8232;SDS011;4157;48.074;9.952;2023-12-20T13:47:30;4.88;;;1.23;;
8232;SDS011;4157;48.074;9.952;2023-12-20T13:50:00;2.83;;;1.30;;
8232;SDS011;4157;48.074;9.952;2023-12-20T13:52:28;2.17;;;1.25;;
8232;SDS011;4157;48.074;9.952;2023-12-20T13:54:56;2.15;;;1.20;;
8232;SDS011;4157;48.074;9.952;2023-12-20T13:57:23;1.45;;;0.80;;
8232;SDS011;4157;48.074;9.952;2023-12-20T13:59:51;3.17;;;1.33;;
8232;SDS011;4157;48.074;9.952;2023-12-20T14:02:19;4.75;;;1.23;;
8232;SDS011;4157;48.074;9.952;2023-12-20T14:04:47;2.35;;;1.00;;
8232;SDS011;4157;48.074;9.952;2023-12-20T14:07:16;2.78;;;1.35;;
8232;SDS011;4157;48.074;9.952;2023-12-20T14:09:44;2.40;;;1.02;;
8232;SDS011;4157;48.074;9.952;2023-12-20T14:12:11;4.03;;;1.38;;
8232;SDS011;4157;48.074;9.952;2023-12-20T14:14:39;2.40;;;1.20;;
8232;SDS011;4157;48.074;9.952;2023-12-20T14:17:07;2.25;;;1.27;;
8232;SDS011;4157;48.074;9.952;2023-12-20T14:19:34;2.05;;;1.20;;
8232;SDS011;4157;48.074;9.952;2023-12-20T14:22:02;4.32;;;1.40;;
8232;SDS011;4157;48.074;9.952;2023-12-20T14:24:31;3.58;;;1.42;;
8232;SDS011;4157;48.074;9.952;2023-12-20T14:27:00;3.90;;;1.40;;
8232;SDS011;4157;48.074;9.952;2023-12-20T14:29:28;2.85;;;1.38;;
8232;SDS011;4157;48.074;9.952;2023-12-20T14:31:55;3.70;;;1.35;;
8232;SDS011;4157;48.074;9.952;2023-12-20T14:34:23;5.07;;;1.50;;
8232;SDS011;4157;48.074;9.952;2023-12-20T14:36:50;4.20;;;1.50;;
8232;SDS011;4157;48.074;9.952;2023-12-20T14:39:18;5.65;;;1.80;;
8232;SDS011;4157;48.074;9.952;2023-12-20T14:41:47;4.72;;;1.77;;
8232;SDS011;4157;48.074;9.952;2023-12-20T14:44:14;3.47;;;1.70;;
8232;SDS011;4157;48.074;9.952;2023-12-20T14:46:42;3.67;;;1.70;;
8232;SDS011;4157;48.074;9.952;2023-12-20T14:49:10;2.78;;;1.55;;
8232;SDS011;4157;48.074;9.952;2023-12-20T14:51:37;4.05;;;1.58;;
8232;SDS011;4157;48.074;9.952;2023-12-20T14:54:05;3.55;;;1.75;;
8232;SDS011;4157;48.074;9.952;2023-12-20T14:56:35;5.55;;;2.05;;
8232;SDS011;4157;48.074;9.952;2023-12-20T14:59:04;5.40;;;2.20;;
8232;SDS011;4157;48.074;9.952;2023-12-20T15:01:34;4.57;;;1.90;;
8232;SDS011;4157;48.074;9.952;2023-12-20T15:04:02;3.58;;;1.85;;
8232;SDS011;4157;48.074;9.952;2023-12-20T15:06:29;4.05;;;1.75;;
8232;SDS011;4157;48.074;9.952;2023-12-20T15:08:58;4.63;;;1.73;;
8232;SDS011;4157;48.074;9.952;2023-12-20T15:11:28;4.50;;;1.90;;
8232;SDS011;4157;48.074;9.952;2023-12-20T15:13:55;5.38;;;2.30;;
8232;SDS011;4157;48.074;9.952;2023-12-20T15:16:27;7.15;;;2.50;;
8232;SDS011;4157;48.074;9.952;2023-12-20T15:18:54;5.30;;;1.73;;
8232;SDS011;4157;48.074;9.952;2023-12-20T15:21:23;5.22;;;1.67;;